Time;durP1;ratioP1;P1;durP2;ratioP2;P2;SDS_P1;SDS_P2;PMS_P1;PMS_P2;Temp;Humidity;BMP_temperature;BMP_pressure;BME280_temperature;BME280_humidity;BME280_pressure;Samples;Min_cycle;Max_cycle;Signal;HPM_P1;HPM_P2
2023/08/04 00:00:54;;;;;;;2.30;1.30;;;;;;;;;;4979524;28;20441;-88
2023/08/04 00:03:20;;;;;;;2.03;1.30;;;;;;;;;;4977169;28;20911;-88
2023/08/04 00:05:46;;;;;;;1.57;1.00;;;;;;;;;;4980202;28;20444;-90
2023/08/04 00:08:12;;;;;;;1.27;0.87;;;;;;;;;;4983022;28;20467;-89
2023/08/04 00:10:41;;;;;;;3.33;1.20;;;;;;;;;;4986285;28;20456;-88
2023/08/04 00:13:07;;;;;;;1.70;1.00;;;;;;;;;;5011191;28;20453;-89
2023/08/04 00:15:34;;;;;;;3.10;1.47;;;;;;;;;;4985755;28;20425;-88
2023/08/04 00:18:00;;;;;;;2.57;1.00;;;;;;;;;;4987012;28;20425;-88
2023/08/04 00:20:26;;;;;;;1.50;1.00;;;;;;;;;;4984938;28;20436;-89
2023/08/04 00:22:52;;;;;;;3.00;1.27;;;;;;;;;;4983420;28;20862;-89
2023/08/04 00:25:18;;;;;;;1.80;0.83;;;;;;;;;;5000310;28;20426;-89
2023/08/04 00:27:44;;;;;;;2.17;1.17;;;;;;;;;;4988738;28;20417;-89
2023/08/04 00:30:10;;;;;;;2.90;1.00;;;;;;;;;;4985079;28;20424;-89
2023/08/04 00:32:36;;;;;;;1.50;0.80;;;;;;;;;;4986970;28;20467;-89
2023/08/04 00:35:05;;;;;;;2.90;1.00;;;;;;;;;;4985011;28;20415;-89
2023/08/04 00:37:31;;;;;;;2.20;1.23;;;;;;;;;;4985277;28;20394;-90
2023/08/04 00:39:57;;;;;;;3.63;1.23;;;;;;;;;;4984551;28;20425;-89
2023/08/04 00:42:23;;;;;;;3.03;1.00;;;;;;;;;;4984569;28;20500;-89
2023/08/04 00:44:49;;;;;;;3.43;1.30;;;;;;;;;;5001533;28;20452;-89
2023/08/04 00:47:15;;;;;;;3.13;1.10;;;;;;;;;;5009035;28;20404;-89
2023/08/04 00:49:41;;;;;;;1.90;1.03;;;;;;;;;;4984627;28;20480;-89
2023/08/04 00:52:08;;;;;;;3.20;0.80;;;;;;;;;;4982149;28;21279;-89
2023/08/04 00:54:34;;;;;;;4.63;1.27;;;;;;;;;;4988409;28;20410;-89
2023/08/04 00:57:00;;;;;;;1.83;0.80;;;;;;;;;;4984882;28;20471;-89
2023/08/04 00:59:26;;;;;;;1.60;1.10;;;;;;;;;;4985364;28;20437;-89
2023/08/04 01:01:52;;;;;;;2.00;1.30;;;;;;;;;;4972035;28;20437;-89
2023/08/04 01:04:18;;;;;;;1.63;1.00;;;;;;;;;;4985633;28;20495;-89
2023/08/04 01:06:48;;;;;;;1.40;1.00;;;;;;;;;;4982923;28;20496;-89
2023/08/04 01:09:13;;;;;;;2.50;1.23;;;;;;;;;;5000234;28;20420;-90
2023/08/04 01:11:40;;;;;;;1.60;0.80;;;;;;;;;;5001432;28;20437;-90
2023/08/04 01:14:06;;;;;;;1.93;1.37;;;;;;;;;;4987002;28;20459;-90
2023/08/04 01:16:32;;;;;;;1.30;0.80;;;;;;;;;;4988814;28;20520;-89
2023/08/04 01:18:58;;;;;;;1.60;1.30;;;;;;;;;;5103358;23;20873;-89
2023/08/04 01:21:24;;;;;;;2.80;1.00;;;;;;;;;;5006564;28;20428;-89
2023/08/04 01:23:50;;;;;;;1.97;1.30;;;;;;;;;;5010399;28;20514;-89
2023/08/04 01:26:16;;;;;;;2.27;1.37;;;;;;;;;;5005605;28;20451;-89
2023/08/04 01:28:42;;;;;;;2.93;1.37;;;;;;;;;;5005600;28;20504;-89
2023/08/04 01:31:08;;;;;;;2.70;1.40;;;;;;;;;;5013289;28;20424;-88
2023/08/04 01:33:34;;;;;;;2.30;1.17;;;;;;;;;;5033887;28;20451;-88
2023/08/04 01:36:00;;;;;;;2.40;1.00;;;;;;;;;;4996405;28;20437;-88
2023/08/04 01:38:26;;;;;;;2.60;1.60;;;;;;;;;;5028518;28;20416;-88
2023/08/04 01:40:52;;;;;;;2.50;1.40;;;;;;;;;;5001301;28;20475;-90
2023/08/04 01:43:19;;;;;;;1.90;1.17;;;;;;;;;;5003886;28;20452;-90
2023/08/04 01:45:45;;;;;;;1.57;1.00;;;;;;;;;;5000099;28;20433;-87
2023/08/04 01:55:57;;;;;;;3.30;1.13;;;;;;;;;;5002403;28;20888;-89
2023/08/04 01:58:23;;;;;;;1.50;0.90;;;;;;;;;;4988270;28;20515;-89
2023/08/04 02:00:49;;;;;;;1.97;1.13;;;;;;;;;;4986473;28;20484;-89
2023/08/04 02:03:15;;;;;;;1.70;1.00;;;;;;;;;;4991046;28;20481;-88
2023/08/04 02:05:50;;;;;;;2.77;0.90;;;;;;;;;;4985576;28;21310;-88
2023/08/04 02:08:16;;;;;;;1.60;1.07;;;;;;;;;;4984607;28;20440;-89
2023/08/04 02:10:51;;;;;;;1.90;1.27;;;;;;;;;;5001573;28;20413;-88
2023/08/04 02:13:17;;;;;;;1.90;1.30;;;;;;;;;;4986579;28;20552;-89
2023/08/04 02:15:43;;;;;;;1.73;1.13;;;;;;;;;;4983964;28;20848;-89
2023/08/04 02:18:09;;;;;;;2.00;1.07;;;;;;;;;;5000526;28;20433;-89
2023/08/04 02:20:35;;;;;;;1.93;1.00;;;;;;;;;;5017874;28;20429;-89
2023/08/04 02:23:08;;;;;;;3.57;1.13;;;;;;;;;;4991531;28;20436;-88
2023/08/04 02:25:34;;;;;;;2.63;1.03;;;;;;;;;;4998938;28;20903;-89
2023/08/04 02:28:00;;;;;;;1.63;1.10;;;;;;;;;;4986165;28;20451;-89
2023/08/04 02:30:25;;;;;;;7.30;1.30;;;;;;;;;;4984565;28;20429;-89
2023/08/04 02:32:51;;;;;;;1.50;1.10;;;;;;;;;;4987326;28;20464;-89
2023/08/04 02:35:18;;;;;;;2.27;1.33;;;;;;;;;;4964705;28;20477;-89
2023/08/04 02:37:47;;;;;;;1.63;1.13;;;;;;;;;;4945584;28;20418;-89
2023/08/04 02:40:13;;;;;;;2.40;1.10;;;;;;;;;;4966733;28;20417;-89
2023/08/04 02:42:39;;;;;;;1.37;1.00;;;;;;;;;;4948973;28;20468;-89
2023/08/04 02:45:05;;;;;;;2.07;0.90;;;;;;;;;;4963094;28;20561;-90
2023/08/04 02:47:31;;;;;;;1.97;1.07;;;;;;;;;;4948766;28;20478;-89
2023/08/04 02:49:58;;;;;;;2.87;1.00;;;;;;;;;;4967722;28;20519;-89
2023/08/04 02:52:25;;;;;;;3.00;1.33;;;;;;;;;;4951740;28;21044;-88
2023/08/04 02:54:53;;;;;;;2.00;1.00;;;;;;;;;;4925624;29;20429;-89
2023/08/04 02:57:19;;;;;;;1.93;1.00;;;;;;;;;;4906492;29;20433;-88
2023/08/04 02:59:47;;;;;;;2.23;1.10;;;;;;;;;;4923837;29;20476;-88
2023/08/04 03:02:13;;;;;;;2.63;1.10;;;;;;;;;;4923435;29;20429;-89
2023/08/04 03:04:39;;;;;;;4.07;1.30;;;;;;;;;;4924554;29;20578;-88
2023/08/04 03:07:05;;;;;;;3.50;1.40;;;;;;;;;;4954009;29;20439;-88
2023/08/04 03:09:31;;;;;;;5.30;1.30;;;;;;;;;;4931017;29;20498;-89
2023/08/04 03:11:57;;;;;;;2.40;1.00;;;;;;;;;;4943888;29;20435;-88
2023/08/04 03:14:23;;;;;;;2.30;1.33;;;;;;;;;;4945476;29;20466;-88
2023/08/04 03:16:52;;;;;;;1.70;1.30;;;;;;;;;;4959958;29;20489;-88
2023/08/04 03:19:18;;;;;;;2.90;1.50;;;;;;;;;;4942978;29;20547;-88
2023/08/04 03:21:44;;;;;;;2.23;1.10;;;;;;;;;;4945606;28;20443;-89
2023/08/04 03:24:10;;;;;;;1.70;0.90;;;;;;;;;;4965143;28;20415;-88
2023/08/04 03:26:36;;;;;;;2.30;0.90;;;;;;;;;;4960202;29;20446;-88
2023/08/04 03:29:02;;;;;;;1.60;0.93;;;;;;;;;;4945397;29;20423;-88
2023/08/04 03:31:28;;;;;;;2.57;1.03;;;;;;;;;;4945727;29;20502;-89
2023/08/04 03:33:54;;;;;;;3.77;1.20;;;;;;;;;;4963545;29;20475;-89
2023/08/04 03:36:20;;;;;;;1.90;1.00;;;;;;;;;;4956653;28;20484;-89
2023/08/04 03:38:47;;;;;;;2.37;1.20;;;;;;;;;;4976280;28;20441;-89
2023/08/04 03:41:13;;;;;;;1.60;0.87;;;;;;;;;;4981188;28;20970;-88
2023/08/04 03:43:40;;;;;;;1.40;0.90;;;;;;;;;;5002215;28;20422;-88
2023/08/04 03:46:06;;;;;;;1.57;0.90;;;;;;;;;;4985936;28;20808;-89
2023/08/04 03:48:32;;;;;;;2.07;1.00;;;;;;;;;;4983826;28;20480;-90
2023/08/04 03:50:58;;;;;;;1.93;1.20;;;;;;;;;;4984487;28;20449;-90
2023/08/04 03:53:26;;;;;;;1.90;0.90;;;;;;;;;;4987884;28;20461;-89
2023/08/04 03:55:52;;;;;;;3.03;1.30;;;;;;;;;;4989230;28;20452;-88
2023/08/04 03:58:18;;;;;;;5.43;1.37;;;;;;;;;;5001088;28;21003;-88
2023/08/04 04:00:44;;;;;;;1.30;1.07;;;;;;;;;;4984654;28;20832;-90
2023/08/04 04:03:10;;;;;;;2.27;1.10;;;;;;;;;;4985772;28;20479;-89
2023/08/04 04:05:38;;;;;;;2.40;0.90;;;;;;;;;;4987663;28;20440;-89
2023/08/04 04:08:04;;;;;;;2.17;1.00;;;;;;;;;;5000792;28;20433;-89
2023/08/04 04:10:30;;;;;;;5.10;1.30;;;;;;;;;;4980889;28;20441;-89
2023/08/04 04:12:56;;;;;;;2.20;0.90;;;;;;;;;;4995172;28;20484;-90
2023/08/04 04:15:22;;;;;;;3.10;1.33;;;;;;;;;;4981084;28;20433;-88
2023/08/04 04:17:48;;;;;;;2.77;0.97;;;;;;;;;;4984194;28;21235;-89
2023/08/04 04:20:14;;;;;;;2.13;1.20;;;;;;;;;;4980670;28;20458;-89
2023/08/04 04:22:40;;;;;;;4.30;1.37;;;;;;;;;;4981956;28;20445;-90
2023/08/04 04:25:06;;;;;;;1.77;1.00;;;;;;;;;;5014839;28;20520;-90
2023/08/04 04:27:32;;;;;;;1.50;1.00;;;;;;;;;;4981776;28;20445;-89
2023/08/04 04:29:58;;;;;;;2.10;0.90;;;;;;;;;;5017540;28;20489;-89
2023/08/04 04:32:24;;;;;;;1.93;1.07;;;;;;;;;;4980577;28;20448;-90
2023/08/04 04:34:50;;;;;;;2.03;1.20;;;;;;;;;;4987429;28;20453;-89
2023/08/04 04:37:16;;;;;;;1.90;1.07;;;;;;;;;;4980282;28;20428;-89
2023/08/04 04:39:42;;;;;;;2.03;1.07;;;;;;;;;;4983007;28;21008;-88
2023/08/04 04:42:08;;;;;;;6.73;1.00;;;;;;;;;;4983066;28;20912;-89
2023/08/04 04:44:34;;;;;;;1.77;0.93;;;;;;;;;;5002531;28;20499;-89
2023/08/04 04:47:00;;;;;;;2.60;1.10;;;;;;;;;;4963575;28;20521;-89
2023/08/04 04:49:26;;;;;;;2.40;1.20;;;;;;;;;;4961110;28;20561;-89
2023/08/04 04:51:52;;;;;;;2.10;0.97;;;;;;;;;;4965131;28;20530;-88
2023/08/04 04:54:19;;;;;;;2.53;1.00;;;;;;;;;;4948398;28;20462;-89
2023/08/04 04:56:46;;;;;;;1.73;1.10;;;;;;;;;;4948266;28;20466;-89
2023/08/04 04:59:17;;;;;;;1.30;0.93;;;;;;;;;;4947462;28;20672;-89
2023/08/04 05:01:44;;;;;;;1.77;1.00;;;;;;;;;;4984737;28;20442;-88
2023/08/04 05:04:10;;;;;;;1.60;1.30;;;;;;;;;;4946600;28;20446;-89
2023/08/04 05:06:36;;;;;;;1.90;1.10;;;;;;;;;;4958707;28;20477;-89
2023/08/04 05:09:03;;;;;;;1.97;0.90;;;;;;;;;;4947052;28;20449;-88
2023/08/04 05:11:29;;;;;;;2.00;1.00;;;;;;;;;;4946921;28;20566;-89
2023/08/04 05:13:55;;;;;;;1.30;1.10;;;;;;;;;;4946681;28;20461;-89
2023/08/04 05:16:21;;;;;;;1.50;1.00;;;;;;;;;;4965793;28;20465;-89
2023/08/04 05:18:47;;;;;;;1.70;1.00;;;;;;;;;;4962999;28;20438;-88
2023/08/04 05:21:13;;;;;;;2.23;0.97;;;;;;;;;;4949560;28;20414;-89
2023/08/04 05:23:39;;;;;;;1.63;1.03;;;;;;;;;;4946211;28;20434;-89
2023/08/04 05:26:05;;;;;;;1.63;1.00;;;;;;;;;;5003809;28;20443;-89
2023/08/04 05:28:32;;;;;;;2.40;0.87;;;;;;;;;;4981680;28;20524;-89
2023/08/04 05:30:59;;;;;;;2.37;1.07;;;;;;;;;;4985717;28;20449;-89
2023/08/04 05:33:26;;;;;;;2.20;1.10;;;;;;;;;;4980441;28;20489;-88
2023/08/04 05:35:52;;;;;;;5.80;1.70;;;;;;;;;;4987113;28;20451;-89
2023/08/04 05:38:18;;;;;;;2.50;0.80;;;;;;;;;;4983264;28;20421;-89
2023/08/04 05:40:45;;;;;;;1.50;0.80;;;;;;;;;;4982725;28;20417;-89
2023/08/04 05:43:11;;;;;;;1.57;0.90;;;;;;;;;;4980539;28;20710;-89
2023/08/04 05:45:37;;;;;;;2.40;1.10;;;;;;;;;;4983313;28;20421;-88
2023/08/04 05:48:05;;;;;;;1.83;1.20;;;;;;;;;;4993480;28;20433;-89
2023/08/04 05:50:32;;;;;;;1.60;1.00;;;;;;;;;;4982836;28;20535;-90
2023/08/04 05:52:58;;;;;;;1.60;1.00;;;;;;;;;;4977692;28;20543;-89
2023/08/04 05:55:24;;;;;;;1.73;1.07;;;;;;;;;;4981621;28;20825;-89
2023/08/04 05:57:51;;;;;;;2.80;1.20;;;;;;;;;;5015101;28;20441;-90
2023/08/04 06:00:19;;;;;;;2.13;0.80;;;;;;;;;;4982107;28;20459;-90
2023/08/04 06:02:45;;;;;;;1.40;0.80;;;;;;;;;;4989170;28;20855;-89
2023/08/04 06:05:12;;;;;;;2.07;1.13;;;;;;;;;;4988709;28;20421;-90
2023/08/04 06:07:38;;;;;;;1.40;0.97;;;;;;;;;;4988878;28;20428;-90
2023/08/04 06:10:04;;;;;;;1.40;0.90;;;;;;;;;;4985381;28;20483;-89
2023/08/04 06:12:30;;;;;;;2.17;0.90;;;;;;;;;;4984145;28;20487;-89
2023/08/04 06:14:57;;;;;;;4.83;1.07;;;;;;;;;;5001102;28;20436;-89
2023/08/04 06:17:23;;;;;;;1.63;0.87;;;;;;;;;;4980284;28;20413;-90
2023/08/04 06:19:49;;;;;;;2.93;1.10;;;;;;;;;;4983436;28;20429;-91
2023/08/04 06:22:15;;;;;;;2.57;1.00;;;;;;;;;;4983541;28;20440;-89
2023/08/04 06:24:41;;;;;;;1.70;1.00;;;;;;;;;;4999435;28;20448;-90
2023/08/04 06:27:07;;;;;;;1.63;0.97;;;;;;;;;;5001312;28;20568;-91
2023/08/04 06:29:34;;;;;;;1.60;0.87;;;;;;;;;;4984272;28;20588;-91
2023/08/04 06:32:00;;;;;;;2.00;0.87;;;;;;;;;;4988354;28;20985;-91
2023/08/04 06:34:26;;;;;;;3.03;1.27;;;;;;;;;;4989195;28;20515;-91
2023/08/04 06:36:54;;;;;;;2.10;1.10;;;;;;;;;;4986303;28;20808;-91
2023/08/04 06:39:22;;;;;;;2.50;1.33;;;;;;;;;;4988782;28;20445;-89
2023/08/04 06:41:48;;;;;;;3.30;1.67;;;;;;;;;;4984404;28;20441;-90
2023/08/04 06:44:14;;;;;;;1.73;0.90;;;;;;;;;;4980526;28;20445;-90
2023/08/04 06:46:40;;;;;;;4.83;1.17;;;;;;;;;;4985501;28;20441;-90
2023/08/04 06:49:06;;;;;;;4.73;1.93;;;;;;;;;;4987593;28;20409;-91
2023/08/04 06:51:32;;;;;;;1.57;1.00;;;;;;;;;;4999855;28;20410;-90
2023/08/04 06:54:01;;;;;;;1.90;0.90;;;;;;;;;;4989638;28;20855;-91
2023/08/04 06:56:27;;;;;;;2.27;1.20;;;;;;;;;;5000895;28;20425;-89
2023/08/04 06:58:53;;;;;;;1.80;1.00;;;;;;;;;;4990668;28;20421;-90
2023/08/04 07:01:19;;;;;;;3.70;1.33;;;;;;;;;;4986799;28;20465;-91
2023/08/04 07:03:47;;;;;;;1.50;0.80;;;;;;;;;;4986804;28;20775;-91
2023/08/04 07:06:13;;;;;;;1.50;0.90;;;;;;;;;;4996045;28;20436;-91
2023/08/04 07:08:39;;;;;;;3.80;1.00;;;;;;;;;;4992991;28;20401;-90
2023/08/04 07:11:05;;;;;;;1.53;0.90;;;;;;;;;;4985017;28;20461;-91
2023/08/04 07:13:31;;;;;;;2.80;1.27;;;;;;;;;;4997586;28;20461;-91
2023/08/04 07:15:59;;;;;;;1.77;0.90;;;;;;;;;;4986329;28;20535;-90
2023/08/04 07:18:25;;;;;;;1.60;1.10;;;;;;;;;;4988958;28;20441;-90
2023/08/04 07:20:51;;;;;;;1.77;1.03;;;;;;;;;;4981820;28;20433;-90
2023/08/04 07:23:17;;;;;;;2.30;1.20;;;;;;;;;;4986226;28;20429;-90
2023/08/04 07:25:43;;;;;;;3.40;1.00;;;;;;;;;;4985481;28;20429;-91
2023/08/04 07:28:09;;;;;;;2.57;1.00;;;;;;;;;;4985238;28;20616;-91
2023/08/04 07:30:38;;;;;;;3.60;1.40;;;;;;;;;;4985264;28;20477;-89
2023/08/04 07:33:06;;;;;;;3.00;1.60;;;;;;;;;;4986901;28;20457;-88
2023/08/04 07:35:33;;;;;;;1.30;0.73;;;;;;;;;;4995326;28;20602;-88
2023/08/04 07:37:59;;;;;;;2.27;1.00;;;;;;;;;;5004696;28;20420;-89
2023/08/04 07:40:25;;;;;;;1.90;1.10;;;;;;;;;;4986404;28;20441;-89
2023/08/04 07:42:51;;;;;;;1.70;1.00;;;;;;;;;;4994699;28;20501;-90
2023/08/04 07:45:17;;;;;;;2.00;1.17;;;;;;;;;;4996937;28;20445;-91
2023/08/04 07:47:43;;;;;;;1.60;1.00;;;;;;;;;;4989878;28;20425;-91
2023/08/04 07:50:09;;;;;;;2.50;1.00;;;;;;;;;;4985079;28;20930;-91
2023/08/04 07:52:35;;;;;;;1.93;1.27;;;;;;;;;;5002924;28;20457;-91
2023/08/04 07:55:01;;;;;;;3.23;1.23;;;;;;;;;;4983975;28;20422;-92
2023/08/04 07:57:27;;;;;;;2.57;1.17;;;;;;;;;;4996106;28;20509;-92
2023/08/04 07:59:53;;;;;;;2.93;1.10;;;;;;;;;;4991294;28;20473;-92
2023/08/04 10:58:52;;;;;;;1.87;1.20;;;;;;;;;;5001617;28;21051;-90
2023/08/04 11:01:18;;;;;;;4.73;1.80;;;;;;;;;;4985569;28;20429;-90
2023/08/04 11:03:48;;;;;;;2.33;1.23;;;;;;;;;;4990017;28;20420;-90
2023/08/04 11:06:14;;;;;;;3.77;1.37;;;;;;;;;;5014242;28;20413;-90
2023/08/04 11:08:41;;;;;;;1.90;1.30;;;;;;;;;;4986061;28;20457;-90
2023/08/04 11:11:07;;;;;;;1.90;1.23;;;;;;;;;;4986732;28;20463;-90
2023/08/04 11:13:33;;;;;;;2.13;1.30;;;;;;;;;;4982195;28;20840;-90
2023/08/04 11:15:59;;;;;;;2.07;1.50;;;;;;;;;;4988181;28;20972;-89
2023/08/04 11:18:27;;;;;;;4.70;1.53;;;;;;;;;;4983994;28;20450;-89
2023/08/04 11:20:53;;;;;;;4.00;1.33;;;;;;;;;;5001536;28;20984;-91
2023/08/04 11:23:26;;;;;;;3.03;1.43;;;;;;;;;;4986622;28;20420;-89
2023/08/04 11:25:52;;;;;;;2.87;1.43;;;;;;;;;;4987927;28;20429;-90
2023/08/04 11:28:19;;;;;;;2.87;1.80;;;;;;;;;;4990464;28;20425;-89
2023/08/04 11:30:45;;;;;;;2.63;1.60;;;;;;;;;;4984295;28;20451;-90
2023/08/04 11:33:11;;;;;;;3.27;1.50;;;;;;;;;;4999871;28;20637;-90
2023/08/04 11:35:37;;;;;;;1.97;1.40;;;;;;;;;;4993764;28;20506;-90
2023/08/04 11:38:03;;;;;;;5.53;1.80;;;;;;;;;;4992454;28;20423;-89
2023/08/04 11:40:29;;;;;;;2.93;2.13;;;;;;;;;;5005035;28;20471;-89
2023/08/04 11:42:59;;;;;;;2.37;1.30;;;;;;;;;;4983626;28;20440;-90
2023/08/04 11:45:25;;;;;;;3.50;1.60;;;;;;;;;;4987888;28;20398;-90
2023/08/04 11:47:56;;;;;;;4.40;1.57;;;;;;;;;;5001726;28;20437;-90
2023/08/04 11:50:31;;;;;;;3.57;1.70;;;;;;;;;;5004255;28;20397;-90
2023/08/04 11:52:59;;;;;;;2.07;1.43;;;;;;;;;;4988708;28;20467;-90
2023/08/04 11:55:25;;;;;;;1.50;1.10;;;;;;;;;;5008695;28;20448;-90
2023/08/04 11:57:52;;;;;;;3.80;1.33;;;;;;;;;;4991532;28;20464;-90
2023/08/04 12:00:18;;;;;;;2.90;1.80;;;;;;;;;;4996485;28;20443;-90
2023/08/04 12:03:00;;;;;;;4.37;1.33;;;;;;;;;;4988223;28;20424;-90
2023/08/04 12:05:30;;;;;;;2.37;1.43;;;;;;;;;;5004292;28;20436;-92
2023/08/04 12:07:56;;;;;;;3.13;1.30;;;;;;;;;;4987010;28;20464;-91
2023/08/04 12:10:23;;;;;;;2.93;1.33;;;;;;;;;;5003841;28;20448;-90
2023/08/04 12:12:50;;;;;;;1.83;1.30;;;;;;;;;;4985712;28;20405;-90
2023/08/04 12:15:15;;;;;;;1.90;1.00;;;;;;;;;;4983230;28;20413;-90
2023/08/04 12:17:42;;;;;;;2.50;1.23;;;;;;;;;;4987153;28;20448;-90
2023/08/04 12:20:08;;;;;;;1.53;0.90;;;;;;;;;;4985598;28;20442;-90
2023/08/04 12:22:35;;;;;;;1.63;0.97;;;;;;;;;;4990975;28;20477;-89
2023/08/04 12:25:03;;;;;;;2.20;0.90;;;;;;;;;;4981085;28;20528;-91
2023/08/04 12:27:28;;;;;;;1.90;0.93;;;;;;;;;;4981347;28;20440;-90
2023/08/04 12:29:55;;;;;;;1.47;0.97;;;;;;;;;;4965852;28;20443;-90
2023/08/04 12:32:20;;;;;;;2.70;1.37;;;;;;;;;;4987135;28;20483;-89
2023/08/04 12:34:47;;;;;;;3.07;1.40;;;;;;;;;;4966530;28;20461;-90
2023/08/04 12:37:13;;;;;;;1.97;1.10;;;;;;;;;;4965885;28;20430;-90
2023/08/04 12:39:39;;;;;;;1.67;1.20;;;;;;;;;;4962657;28;20670;-90
2023/08/04 12:42:05;;;;;;;1.90;1.00;;;;;;;;;;4975054;28;20465;-89
2023/08/04 12:44:31;;;;;;;1.50;0.97;;;;;;;;;;4973446;28;20785;-89
2023/08/04 12:46:57;;;;;;;3.23;1.30;;;;;;;;;;4972385;28;20440;-90
2023/08/04 12:49:23;;;;;;;1.37;0.80;;;;;;;;;;4968420;28;20437;-89
2023/08/04 12:51:49;;;;;;;2.00;0.80;;;;;;;;;;4963875;28;20438;-90
2023/08/04 12:54:17;;;;;;;2.90;0.90;;;;;;;;;;4968226;28;20458;-89
2023/08/04 12:56:43;;;;;;;2.60;1.00;;;;;;;;;;4968744;28;20422;-90
2023/08/04 12:59:08;;;;;;;3.60;1.10;;;;;;;;;;4991167;28;20975;-90
2023/08/04 13:01:35;;;;;;;2.57;1.07;;;;;;;;;;4989695;28;20456;-90
2023/08/04 13:04:00;;;;;;;2.17;0.80;;;;;;;;;;4963498;28;20426;-89
2023/08/04 13:06:26;;;;;;;1.30;0.70;;;;;;;;;;4963202;28;20469;-89
2023/08/04 13:08:53;;;;;;;2.03;1.13;;;;;;;;;;4963450;28;20418;-89
2023/08/04 13:11:19;;;;;;;1.30;0.87;;;;;;;;;;4970289;28;20441;-89
2023/08/04 13:13:45;;;;;;;1.93;1.10;;;;;;;;;;4967247;28;20544;-87
2023/08/04 13:16:11;;;;;;;2.83;1.20;;;;;;;;;;4956390;28;20482;-89
2023/08/04 13:18:37;;;;;;;1.63;1.00;;;;;;;;;;4967176;28;20808;-88
2023/08/04 13:21:03;;;;;;;2.57;1.43;;;;;;;;;;4966580;28;20434;-89
2023/08/04 13:23:32;;;;;;;2.50;1.40;;;;;;;;;;4969121;28;21622;-90
2023/08/04 13:26:05;;;;;;;2.00;1.20;;;;;;;;;;4980311;28;20429;-90
2023/08/04 13:28:31;;;;;;;2.93;1.40;;;;;;;;;;4967045;28;20967;-91
2023/08/04 13:30:59;;;;;;;2.00;1.70;;;;;;;;;;4988247;28;20494;-89
2023/08/04 13:33:28;;;;;;;2.10;1.33;;;;;;;;;;4989358;28;20445;-90
2023/08/04 13:35:55;;;;;;;2.77;1.20;;;;;;;;;;4968947;28;20437;-87
2023/08/04 13:38:21;;;;;;;1.90;1.20;;;;;;;;;;4954261;28;20449;-89
2023/08/04 13:40:48;;;;;;;3.17;2.30;;;;;;;;;;4995101;28;20433;-87
2023/08/04 13:43:14;;;;;;;2.90;2.60;;;;;;;;;;4994860;28;20422;-87
2023/08/04 13:45:44;;;;;;;3.10;2.43;;;;;;;;;;4983643;28;20438;-87
2023/08/04 13:48:10;;;;;;;3.80;1.97;;;;;;;;;;4993130;28;20906;-87
2023/08/04 13:50:37;;;;;;;4.17;2.07;;;;;;;;;;4970071;28;20442;-89
2023/08/04 13:53:03;;;;;;;3.00;2.67;;;;;;;;;;4989275;28;20523;-89
2023/08/04 13:55:29;;;;;;;3.50;2.60;;;;;;;;;;4984169;28;20530;-87
2023/08/04 13:57:55;;;;;;;3.40;3.10;;;;;;;;;;4965626;28;20438;-87
2023/08/04 14:00:21;;;;;;;4.40;2.70;;;;;;;;;;4946468;29;20954;-88
2023/08/04 14:02:47;;;;;;;2.47;2.23;;;;;;;;;;4955254;29;20439;-89
2023/08/04 14:05:13;;;;;;;5.00;3.07;;;;;;;;;;4948092;28;20454;-88
2023/08/04 14:07:41;;;;;;;5.17;2.77;;;;;;;;;;4965675;28;20454;-89
2023/08/04 14:10:10;;;;;;;3.23;2.33;;;;;;;;;;4961018;28;20449;-89
2023/08/04 14:12:36;;;;;;;3.13;2.53;;;;;;;;;;4961217;28;20582;-88
2023/08/04 14:15:02;;;;;;;3.23;2.83;;;;;;;;;;4968377;28;21010;-89
2023/08/04 14:17:28;;;;;;;3.00;2.60;;;;;;;;;;4973237;28;21087;-88
2023/08/04 14:19:54;;;;;;;4.10;3.00;;;;;;;;;;4988496;28;20435;-89
2023/08/04 14:22:20;;;;;;;5.20;3.23;;;;;;;;;;4999790;28;20424;-88
2023/08/04 14:24:47;;;;;;;5.13;3.37;;;;;;;;;;4974221;28;20424;-88
2023/08/04 14:27:13;;;;;;;4.27;3.33;;;;;;;;;;4984213;28;20420;-89
2023/08/04 14:29:39;;;;;;;4.20;3.63;;;;;;;;;;4971378;28;20417;-89
2023/08/04 14:32:05;;;;;;;3.93;3.40;;;;;;;;;;4983654;28;20440;-89
2023/08/04 14:34:31;;;;;;;3.17;2.67;;;;;;;;;;4984518;28;20463;-88
2023/08/04 14:36:58;;;;;;;3.07;2.47;;;;;;;;;;4991282;28;20422;-89
2023/08/04 14:39:24;;;;;;;3.30;2.60;;;;;;;;;;4981583;28;20831;-88
2023/08/04 14:41:50;;;;;;;3.60;2.93;;;;;;;;;;4986818;28;20445;-89
2023/08/04 14:44:16;;;;;;;4.40;2.53;;;;;;;;;;4986266;28;20461;-88
2023/08/04 14:46:42;;;;;;;3.20;2.33;;;;;;;;;;5003969;28;20456;-88
2023/08/04 14:49:08;;;;;;;2.37;1.80;;;;;;;;;;4983893;28;20892;-89
2023/08/04 14:51:36;;;;;;;2.53;2.10;;;;;;;;;;4983246;28;20413;-88
2023/08/04 14:54:02;;;;;;;3.93;1.97;;;;;;;;;;5002082;28;20461;-89
2023/08/04 14:56:28;;;;;;;2.50;1.97;;;;;;;;;;4986039;28;20426;-89
2023/08/04 14:58:54;;;;;;;3.30;2.23;;;;;;;;;;5013284;28;20524;-89
2023/08/04 15:01:21;;;;;;;2.10;1.60;;;;;;;;;;4990023;28;20436;-88
2023/08/04 15:03:49;;;;;;;2.40;2.13;;;;;;;;;;4981654;28;20448;-87
2023/08/04 15:06:18;;;;;;;4.43;2.23;;;;;;;;;;4984350;28;20856;-89
2023/08/04 15:08:46;;;;;;;3.50;2.93;;;;;;;;;;5000764;28;20412;-89
2023/08/04 15:11:14;;;;;;;3.10;2.30;;;;;;;;;;4987096;28;20500;-88
2023/08/04 15:13:43;;;;;;;3.47;2.90;;;;;;;;;;4976875;28;20532;-88
2023/08/04 15:16:09;;;;;;;4.20;2.80;;;;;;;;;;4991078;28;20860;-88
2023/08/04 15:18:36;;;;;;;3.10;2.60;;;;;;;;;;4990859;28;20785;-88
2023/08/04 15:21:11;;;;;;;3.20;2.40;;;;;;;;;;4968666;28;20449;-89
2023/08/04 15:23:37;;;;;;;2.87;2.40;;;;;;;;;;4974402;28;20492;-89
2023/08/04 15:26:03;;;;;;;3.67;3.20;;;;;;;;;;4982498;28;20405;-88
2023/08/04 15:28:29;;;;;;;3.13;2.43;;;;;;;;;;4982643;28;20460;-89
2023/08/04 15:31:05;;;;;;;4.23;3.37;;;;;;;;;;4982758;28;20431;-89
2023/08/04 15:33:34;;;;;;;3.30;2.73;;;;;;;;;;4982264;28;20468;-89
2023/08/04 15:36:01;;;;;;;3.67;2.63;;;;;;;;;;4981312;28;20461;-89
2023/08/04 15:38:30;;;;;;;3.33;2.53;;;;;;;;;;4972337;28;20505;-88
2023/08/04 15:41:00;;;;;;;3.60;2.63;;;;;;;;;;4964519;28;20941;-88
2023/08/04 15:43:26;;;;;;;3.77;3.10;;;;;;;;;;4992670;28;20488;-89
2023/08/04 15:45:52;;;;;;;3.37;2.77;;;;;;;;;;4973999;28;20519;-90
2023/08/04 15:48:20;;;;;;;3.00;2.70;;;;;;;;;;4987674;28;20512;-90
2023/08/04 15:50:46;;;;;;;7.93;3.20;;;;;;;;;;4968286;28;20480;-88
2023/08/04 15:53:12;;;;;;;4.60;2.87;;;;;;;;;;4987045;28;20472;-90
2023/08/04 15:55:38;;;;;;;3.10;2.53;;;;;;;;;;4983270;28;20521;-89
2023/08/04 15:58:04;;;;;;;4.63;2.80;;;;;;;;;;4986324;28;20444;-89
2023/08/04 16:00:30;;;;;;;5.73;4.17;;;;;;;;;;4971205;28;20513;-90
2023/08/04 16:02:56;;;;;;;6.40;3.30;;;;;;;;;;4982492;28;20432;-89
2023/08/04 16:05:22;;;;;;;4.23;3.83;;;;;;;;;;5016152;28;20437;-91
2023/08/04 16:07:48;;;;;;;4.20;3.50;;;;;;;;;;4985951;28;20433;-89
2023/08/04 16:10:15;;;;;;;4.10;3.30;;;;;;;;;;5011485;28;20456;-89
2023/08/04 16:12:51;;;;;;;5.73;3.27;;;;;;;;;;4983812;28;20424;-89
2023/08/04 16:15:28;;;;;;;4.60;3.17;;;;;;;;;;4999528;28;20430;-88
2023/08/04 16:17:55;;;;;;;5.20;4.00;;;;;;;;;;5000623;28;20455;-88
2023/08/04 16:20:21;;;;;;;5.30;3.87;;;;;;;;;;5014208;28;20814;-90
2023/08/04 16:22:47;;;;;;;5.80;3.13;;;;;;;;;;4983436;28;20440;-90
2023/08/04 16:25:18;;;;;;;3.63;3.33;;;;;;;;;;4987867;28;20443;-91
2023/08/04 16:27:44;;;;;;;6.77;4.07;;;;;;;;;;4988728;28;20496;-91
2023/08/04 16:30:11;;;;;;;4.30;3.67;;;;;;;;;;5003551;28;20447;-89
2023/08/04 16:32:37;;;;;;;3.53;3.23;;;;;;;;;;4986321;28;20919;-90
2023/08/04 16:35:03;;;;;;;4.03;3.50;;;;;;;;;;4987097;28;20476;-90
2023/08/04 16:37:29;;;;;;;3.37;2.50;;;;;;;;;;5018114;28;20465;-88
2023/08/04 16:39:55;;;;;;;3.23;2.17;;;;;;;;;;4986608;28;20433;-88
2023/08/04 16:42:22;;;;;;;2.57;1.50;;;;;;;;;;4996727;28;20455;-88
2023/08/04 16:44:50;;;;;;;2.10;1.47;;;;;;;;;;4996496;28;20419;-91
2023/08/04 16:47:16;;;;;;;2.30;1.70;;;;;;;;;;5005938;28;20448;-90
2023/08/04 16:49:43;;;;;;;1.70;1.00;;;;;;;;;;4995074;28;20428;-90
2023/08/04 16:52:09;;;;;;;1.40;1.23;;;;;;;;;;4990697;28;20805;-89
2023/08/04 16:54:37;;;;;;;2.20;1.30;;;;;;;;;;5005336;28;20467;-88
2023/08/04 16:57:04;;;;;;;1.93;1.27;;;;;;;;;;5004796;28;20441;-88
2023/08/04 16:59:30;;;;;;;2.73;1.70;;;;;;;;;;5000951;28;20449;-88
2023/08/04 17:01:56;;;;;;;2.60;2.03;;;;;;;;;;5018199;28;20421;-88
2023/08/04 17:04:23;;;;;;;1.97;1.37;;;;;;;;;;5007282;28;20688;-89
2023/08/04 17:06:49;;;;;;;1.93;1.57;;;;;;;;;;4994265;28;20517;-89
2023/08/04 17:09:15;;;;;;;2.50;2.00;;;;;;;;;;5005939;28;20435;-89
2023/08/04 17:11:41;;;;;;;3.40;2.20;;;;;;;;;;4992227;28;20429;-89
2023/08/04 17:14:13;;;;;;;4.93;3.00;;;;;;;;;;5006205;28;20480;-90
2023/08/04 17:16:39;;;;;;;1.90;1.50;;;;;;;;;;4994157;28;20492;-91
2023/08/04 17:19:05;;;;;;;2.83;1.97;;;;;;;;;;5015218;28;20409;-91
2023/08/04 17:21:34;;;;;;;3.43;2.27;;;;;;;;;;4989494;28;20412;-90
2023/08/04 17:24:00;;;;;;;3.53;3.23;;;;;;;;;;4991198;28;20421;-90
2023/08/04 17:26:26;;;;;;;3.17;2.63;;;;;;;;;;4985108;28;20434;-90
2023/08/04 17:28:53;;;;;;;3.50;2.40;;;;;;;;;;5041131;28;20456;-90
2023/08/04 17:31:20;;;;;;;2.70;2.20;;;;;;;;;;4986097;28;20433;-90
2023/08/04 17:36:21;;;;;;;3.03;1.93;;;;;;;;;;5050584;23;20522;-91
2023/08/04 17:38:47;;;;;;;3.30;2.37;;;;;;;;;;5009324;28;20424;-91
2023/08/04 17:41:13;;;;;;;3.60;2.20;;;;;;;;;;5005763;28;20484;-91
2023/08/04 17:43:39;;;;;;;3.20;2.23;;;;;;;;;;5014929;28;20515;-90
2023/08/04 17:46:05;;;;;;;2.70;2.10;;;;;;;;;;5014033;28;20424;-91